createdAt,value
2019-04-19T00:00:38.218Z,4.30
2019-04-19T00:06:15.942Z,3.80
2019-04-19T00:11:47.735Z,4.07
2019-04-19T00:17:14.808Z,3.80
2019-04-19T00:22:59.192Z,4.33
2019-04-19T00:28:22.413Z,3.47
2019-04-19T00:33:49.364Z,3.83
2019-04-19T00:39:46.627Z,4.07
2019-04-19T00:45:23.727Z,3.90
2019-04-19T00:50:54.005Z,3.80
2019-04-19T00:56:18.217Z,3.80
2019-04-19T01:01:41.865Z,4.30
2019-04-19T01:07:18.532Z,4.17
2019-04-19T01:12:59.690Z,4.97
2019-04-19T01:18:27.760Z,5.10
2019-04-19T01:23:48.117Z,4.43
2019-04-19T01:29:18.187Z,4.70
2019-04-19T01:34:52.813Z,5.43
2019-04-19T01:40:37.513Z,4.80
2019-04-19T01:46:24.212Z,5.03
2019-04-19T01:52:04.039Z,4.13
2019-04-19T01:57:17.636Z,4.97
2019-04-19T02:02:53.730Z,4.60
2019-04-19T02:08:19.210Z,4.63
2019-04-19T02:14:00.669Z,4.60
2019-04-19T02:19:25.132Z,4.50
2019-04-19T02:24:55.334Z,5.20
2019-04-19T02:30:37.266Z,4.20
2019-04-19T02:36:26.965Z,5.03
2019-04-19T02:52:56.637Z,5.50
2019-04-19T03:04:17.856Z,4.90
2019-04-19T03:09:09.232Z,6.13
2019-04-19T03:14:52.238Z,4.90
2019-04-19T03:20:28.649Z,5.30
2019-04-19T03:25:54.414Z,5.07
2019-04-19T03:31:53.775Z,5.87
2019-04-19T03:36:55.105Z,4.87
2019-04-19T03:42:40.610Z,5.33
2019-04-19T03:48:08.850Z,5.53
2019-04-19T03:53:44.979Z,5.23
2019-04-19T03:58:54.258Z,5.70
2019-04-19T04:04:26.781Z,6.07
2019-04-19T04:09:59.286Z,5.03
2019-04-19T04:15:58.735Z,5.60
2019-04-19T04:21:14.620Z,5.00
2019-04-19T04:26:54.651Z,5.17
2019-04-19T04:32:29.566Z,5.70
2019-04-19T04:37:58.556Z,4.80
2019-04-19T04:43:31.297Z,5.60
2019-04-19T04:49:13.720Z,5.30
2019-04-19T04:54:25.001Z,6.23
2019-04-19T04:59:57.462Z,5.93
2019-04-19T05:05:39.403Z,5.10
2019-04-19T05:11:16.593Z,6.40
2019-04-19T05:16:54.560Z,6.20
2019-04-19T05:22:15.190Z,7.07
2019-04-19T05:27:50.189Z,6.60
2019-04-19T05:33:12.368Z,6.03
2019-04-19T05:39:07.773Z,5.97
2019-04-19T05:44:45.217Z,6.23
2019-04-19T05:50:16.981Z,5.70
2019-04-19T05:55:28.006Z,6.13
2019-04-19T06:01:08.863Z,5.83
2019-04-19T06:06:52.511Z,5.47
2019-04-19T06:12:03.347Z,5.53
2019-04-19T06:17:56.629Z,5.30
2019-04-19T06:23:29.319Z,6.27
2019-04-19T06:29:06.413Z,4.97
2019-04-19T06:34:31.146Z,4.63
2019-04-19T06:39:45.887Z,5.00
2019-04-19T06:45:32.156Z,5.27
2019-04-19T06:50:52.347Z,4.60
2019-04-19T06:56:25.656Z,4.93
2019-04-19T07:01:53.965Z,5.40
2019-04-19T07:07:34.938Z,4.83
2019-04-19T07:13:09.787Z,5.30
2019-04-19T07:18:37.230Z,4.40
2019-04-19T07:24:26.139Z,4.53
2019-04-19T07:29:27.405Z,4.37
2019-04-19T07:35:08.974Z,4.50
2019-04-19T07:40:48.981Z,5.30
2019-04-19T07:46:19.393Z,4.70
2019-04-19T07:51:37.883Z,4.10
2019-04-19T07:57:42.176Z,3.90
2019-04-19T08:08:48.912Z,4.13
2019-04-19T08:14:08.044Z,3.80
2019-04-19T08:30:26.731Z,3.73
2019-04-19T08:35:55.832Z,4.00
2019-04-19T08:41:38.306Z,3.30
2019-04-19T08:47:17.442Z,4.13
2019-04-19T08:52:38.677Z,4.10
2019-04-19T08:58:13.436Z,4.10
2019-04-19T09:03:58.942Z,4.10
2019-04-19T09:09:30.914Z,4.37
2019-04-19T09:15:00.946Z,4.30
2019-04-19T09:20:37.328Z,4.30
2019-04-19T09:26:00.475Z,4.30
2019-04-19T09:31:31.886Z,4.70
2019-04-19T09:37:03.686Z,4.67
2019-04-19T09:42:36.711Z,4.70
2019-04-19T09:47:59.006Z,3.77
2019-04-19T09:53:55.736Z,3.40
2019-04-19T09:59:13.517Z,3.50
2019-04-19T10:04:33.630Z,3.57
2019-04-19T10:10:09.161Z,3.83
2019-04-19T10:15:36.917Z,3.60
2019-04-19T10:21:30.351Z,3.70
2019-04-19T10:27:05.546Z,3.87
2019-04-19T10:32:36.194Z,3.20
2019-04-19T10:38:07.311Z,3.40
2019-04-19T10:43:37.169Z,3.47
2019-04-19T10:49:13.132Z,3.40
2019-04-19T10:54:38.354Z,3.50
2019-04-19T11:00:11.373Z,3.47
2019-04-19T11:05:42.907Z,3.10
2019-04-19T11:11:13.891Z,3.40
2019-04-19T11:16:43.958Z,3.30
2019-04-19T11:22:14.087Z,3.03
2019-04-19T11:27:44.760Z,3.37
2019-04-19T11:33:19.412Z,3.50
2019-04-19T11:38:49.317Z,2.70
2019-04-19T11:44:24.119Z,3.00
2019-04-19T11:49:51.379Z,2.73
2019-04-19T11:55:24.299Z,2.43
2019-04-19T12:00:58.143Z,2.27
2019-04-19T12:06:28.093Z,2.93
2019-04-19T12:12:03.644Z,2.10
2019-04-19T12:17:33.446Z,2.37
2019-04-19T12:23:04.163Z,2.60
2019-04-19T12:28:33.790Z,2.50
2019-04-19T12:34:04.460Z,2.33
2019-04-19T12:39:34.819Z,2.50
2019-04-19T12:45:08.059Z,2.00
2019-04-19T12:50:38.851Z,2.70
2019-04-19T12:56:09.989Z,2.13
2019-04-19T13:01:44.383Z,2.40
2019-04-19T13:07:15.457Z,2.17
2019-04-19T13:12:45.518Z,2.10
2019-04-19T13:18:16.184Z,2.70
2019-04-19T13:23:46.580Z,2.20
2019-04-19T13:29:17.599Z,2.50
2019-04-19T13:34:49.474Z,2.00
2019-04-19T13:40:22.156Z,2.30
2019-04-19T13:45:52.704Z,2.30
2019-04-19T13:51:22.804Z,2.00
2019-04-19T13:56:53.635Z,2.20
2019-04-19T14:02:25.416Z,2.87
2019-04-19T14:07:55.204Z,1.90
2019-04-19T14:13:25.263Z,2.00
2019-04-19T14:18:55.138Z,1.70
2019-04-19T14:24:25.140Z,1.97
2019-04-19T14:29:55.189Z,1.80
2019-04-19T14:35:25.858Z,2.10
2019-04-19T14:40:55.567Z,2.40
2019-04-19T14:46:25.309Z,1.80
2019-04-19T14:51:56.010Z,1.67
2019-04-19T14:57:26.266Z,2.00
2019-04-19T15:02:58.805Z,1.83
2019-04-19T15:08:28.696Z,2.03
2019-04-19T15:13:58.904Z,1.80
2019-04-19T15:19:29.456Z,2.00
2019-04-19T15:24:59.276Z,1.60
2019-04-19T15:30:29.345Z,1.90
2019-04-19T15:36:01.303Z,2.50
2019-04-19T15:41:30.493Z,1.60
2019-04-19T15:47:04.808Z,1.90
2019-04-19T15:52:35.666Z,2.20
2019-04-19T15:58:06.471Z,1.90
2019-04-19T16:03:52.031Z,2.50
2019-04-19T16:09:26.787Z,1.70
2019-04-19T16:14:57.748Z,2.10
2019-04-19T16:20:27.513Z,1.73
2019-04-19T16:25:59.203Z,1.70
2019-04-19T16:31:28.876Z,1.97
2019-04-19T16:36:58.461Z,1.93
2019-04-19T16:42:29.336Z,1.90
2019-04-19T16:47:59.828Z,1.80
2019-04-19T16:53:29.607Z,2.30
2019-04-19T16:59:01.423Z,2.00
2019-04-19T17:04:32.500Z,2.07
2019-04-19T17:10:03.682Z,1.97
2019-04-19T17:15:52.924Z,2.13
2019-04-19T17:21:28.038Z,2.03
2019-04-19T17:26:58.706Z,1.77
2019-04-19T17:32:30.266Z,2.17
2019-04-19T17:38:00.318Z,2.10
2019-04-19T17:43:31.817Z,2.20
2019-04-19T17:49:02.416Z,1.83
2019-04-19T17:54:51.439Z,2.23
2019-04-19T18:00:06.622Z,2.50
2019-04-19T18:05:36.607Z,2.03
2019-04-19T18:11:07.461Z,2.40
2019-04-19T18:16:38.460Z,2.27
2019-04-19T18:22:14.887Z,1.90
2019-04-19T18:27:49.249Z,3.43
2019-04-19T18:33:14.830Z,4.33
2019-04-19T18:38:44.489Z,3.40
2019-04-19T18:44:21.996Z,2.37
2019-04-19T18:49:45.641Z,2.90
2019-04-19T18:55:24.905Z,4.10
2019-04-19T19:00:51.764Z,4.23
2019-04-19T19:06:28.349Z,3.60
2019-04-19T19:12:06.271Z,4.00
2019-04-19T19:17:31.057Z,2.73
2019-04-19T19:23:10.796Z,3.30
2019-04-19T19:28:36.084Z,3.20
2019-04-19T19:34:07.519Z,3.17
2019-04-19T19:39:41.017Z,3.03
2019-04-19T19:45:29.525Z,3.10
2019-04-19T19:51:06.054Z,3.40
2019-04-19T19:56:41.972Z,3.83
2019-04-19T20:01:59.569Z,3.40
2019-04-19T20:07:22.117Z,3.37
2019-04-19T20:12:54.183Z,3.47
2019-04-19T20:18:24.155Z,3.40
2019-04-19T20:24:04.416Z,4.17
2019-04-19T20:29:29.796Z,3.10
2019-04-19T20:34:57.426Z,3.10
2019-04-19T20:40:29.508Z,3.73
2019-04-19T20:46:08.684Z,2.83
2019-04-19T20:51:50.818Z,3.40
2019-04-19T20:57:34.810Z,3.70
2019-04-19T21:02:47.842Z,3.83
2019-04-19T21:08:21.191Z,3.20
2019-04-19T21:13:54.855Z,4.30
2019-04-19T21:19:22.422Z,3.70
2019-04-19T21:25:04.893Z,3.40
2019-04-19T21:30:24.966Z,3.10
2019-04-19T21:36:01.726Z,4.13
2019-04-19T21:41:31.669Z,4.37
2019-04-19T21:47:09.266Z,4.00
2019-04-19T21:52:59.749Z,4.07
2019-04-19T21:58:27.669Z,4.10
2019-04-19T22:04:10.158Z,4.00
2019-04-19T22:09:41.475Z,3.53
2019-04-19T22:15:25.592Z,3.90
2019-04-19T22:21:02.759Z,4.40
2019-04-19T22:26:47.149Z,3.97
2019-04-19T22:32:22.588Z,4.33
2019-04-19T22:38:00.912Z,5.40
2019-04-19T22:43:33.262Z,4.07
2019-04-19T22:49:11.277Z,4.27
2019-04-19T22:54:49.255Z,4.20
2019-04-19T23:00:36.859Z,3.77
2019-04-19T23:06:05.717Z,3.83
2019-04-19T23:11:37.445Z,4.23
2019-04-19T23:17:10.494Z,3.90
2019-04-19T23:22:53.361Z,4.37
2019-04-19T23:28:36.695Z,4.40
2019-04-19T23:40:05.731Z,5.07
2019-04-19T23:45:52.954Z,4.40
2019-04-19T23:51:23.201Z,5.10
2019-04-19T23:57:04.448Z,6.40
